Halifax, Nova Scotia

1:39 AM AST on December 20, 2014 (GMT -0400)
Halifax International | Change Station
CLOSE
Current Station
Airport
Location: Halifax,
Elevation: 476 ft
Nearby Weather Stations

Elev 476 ft 44.88 °N, 63.51 °W | Updated 18 minutes ago

Light Snow Showers
Light Showers Snow
28 °F
Feels Like 18 °F
N
13
Wind Variable Wind from North

Today is forecast to be nearly the same temperature as yesterday.

Today
High -- | Low -- °F
--% Chance of Precip.
Yesterday
High -- | Low -- °F
Precip. -- in
7:48 AM 4:35 PM
Waning Crescent, 4% visible
Pressure 30.00 in
Visibility 1.2 miles
Clouds Mostly Cloudy 500 ft
Overcast 1500 ft
Windchill 18 °F
Dew Point 27 °F
Humidity 93%
Rainfall 0.00 in
Snow Depth Not available.
UV 0 out of 12
Pollen Not available.
Air Quality Not available.
Flu Activity Not available.
SPECI CYHZ 200521Z 36011KT 1 1/4SM -SHSN BKN005 OVC015 M02/M03 A2997 RMK ST5SC3 SLP157

More Conditions Fewer Conditions

Pressure 30.00 in
Visibility 1.2 miles
Clouds Mostly Cloudy 500 ft
Overcast 1500 ft
Windchill 18 °F
Dew Point 27 °F
Humidity 93%
Rainfall 0.00 in
Snow Depth Not available.
UV 0 out of 12
Pollen Not available.
Air Quality Not available.
Flu Activity Not available.
SPECI CYHZ 200521Z 36011KT 1 1/4SM -SHSN BKN005 OVC015 M02/M03 A2997 RMK ST5SC3 SLP157

More Conditions Fewer Conditions

10-Day Weather Forecast

Almanac

Astronomy

Dec. 20, 2014 Rise Set
Actual Time
Civil Twilight
Nautical Twilight
Astronomical Twilight
Moon
Length of Visible Light
Length of Day
Tomorrow will be .
, % of the Moon is Illuminated

Today's Extremes

Country Highs Country Lows

Community

WunderPhotos

Upload Photos

1,779,141 photos uploaded!

WunderBlogs® & News

Nearby

Air Quality

  Air Quality AQ Index Pollutant
Not available.

Snow Depth

Station Depth Elevation

Earthquake Activity

City Distance Mag. Time & Date
Minimum magnitude displayed is 2.5.

Coastal Water Temperatures

Place Temperature

Nearby Weather Stations